createdAt,value
2017-12-02T00:00:26.674Z,96802.94
2017-12-02T00:02:52.532Z,96807.55
2017-12-02T00:05:18.356Z,96810.39
2017-12-02T00:07:44.190Z,96805.44
2017-12-02T00:10:09.982Z,96813.17
2017-12-02T00:12:35.778Z,96809.44
2017-12-02T00:15:01.615Z,96812.01
2017-12-02T00:17:27.443Z,96814.63
2017-12-02T00:19:53.272Z,96822.33
2017-12-02T00:22:19.120Z,96826.55
2017-12-02T00:24:44.945Z,96825.61
2017-12-02T00:27:10.772Z,96830.25
2017-12-02T00:29:41.678Z,96832.94
2017-12-02T00:32:07.477Z,96835.05
2017-12-02T00:34:34.175Z,96834.80
2017-12-02T00:37:00.013Z,96839.41
2017-12-02T00:39:28.978Z,96831.56
2017-12-02T00:41:54.837Z,96827.38
2017-12-02T00:44:24.156Z,96830.81
2017-12-02T00:46:49.988Z,96837.16
2017-12-02T00:49:15.777Z,96834.14
2017-12-02T00:51:41.647Z,96835.00
2017-12-02T00:54:07.450Z,96834.17
2017-12-02T00:56:36.559Z,96838.05
2017-12-02T00:59:02.363Z,96836.85
2017-12-02T01:01:29.911Z,96850.11
2017-12-02T01:03:55.725Z,96846.37
2017-12-02T01:08:52.261Z,96844.00
2017-12-02T01:11:20.013Z,96849.70
2017-12-02T01:13:45.864Z,96849.41
2017-12-02T01:16:15.425Z,96849.03
2017-12-02T01:18:41.280Z,96859.05
2017-12-02T01:21:10.207Z,96857.41
2017-12-02T01:23:36.036Z,96860.36
2017-12-02T01:26:01.887Z,96866.19
2017-12-02T01:28:27.693Z,96869.55
2017-12-02T01:30:53.546Z,96876.89
2017-12-02T01:33:21.140Z,96884.88
2017-12-02T01:35:46.931Z,96882.00
2017-12-02T01:38:16.751Z,96888.25
2017-12-02T01:40:42.520Z,96890.97
2017-12-02T01:43:11.864Z,96890.73
2017-12-02T01:45:37.662Z,96897.16
2017-12-02T01:48:05.242Z,96895.36
2017-12-02T01:50:31.073Z,96895.58
2017-12-02T01:53:00.816Z,96895.09
2017-12-02T01:55:26.592Z,96899.77
2017-12-02T01:57:54.444Z,96898.37
2017-12-02T02:00:20.239Z,96906.77
2017-12-02T02:02:46.093Z,96910.03
2017-12-02T02:05:11.948Z,96910.45
2017-12-02T02:07:38.514Z,96908.33
2017-12-02T02:10:07.351Z,96907.55
2017-12-02T02:12:33.107Z,96912.70
2017-12-02T02:15:00.635Z,96908.35
2017-12-02T02:17:26.387Z,96906.16
2017-12-02T02:19:52.829Z,96914.45
2017-12-02T02:22:18.611Z,96910.27
2017-12-02T02:24:44.379Z,96911.92
2017-12-02T02:27:13.508Z,96911.92
2017-12-02T02:29:39.355Z,96910.21
2017-12-02T02:32:07.017Z,96911.34
2017-12-02T02:34:32.861Z,96907.45
2017-12-02T02:37:01.900Z,96911.52
2017-12-02T02:39:27.687Z,96907.98
2017-12-02T02:41:57.058Z,96913.80
2017-12-02T02:44:22.886Z,96922.58
2017-12-02T02:46:51.194Z,96917.02
2017-12-02T02:49:17.023Z,96923.86
2017-12-02T02:51:46.072Z,96927.20
2017-12-02T02:54:11.869Z,96926.86
2017-12-02T02:56:40.608Z,96928.05
2017-12-02T02:59:06.392Z,96931.75
2017-12-02T03:01:35.343Z,96934.15
2017-12-02T03:04:01.125Z,96937.42
2017-12-02T03:06:29.764Z,96939.25
2017-12-02T03:08:55.593Z,96946.03
2017-12-02T03:13:52.167Z,96951.30
2017-12-02T03:16:18.032Z,96953.48
2017-12-02T03:18:43.867Z,96955.84
2017-12-02T03:21:09.717Z,96966.94
2017-12-02T03:23:37.116Z,96964.38
2017-12-02T03:26:02.958Z,96971.41
2017-12-02T03:28:31.298Z,96966.13
2017-12-02T03:30:57.149Z,96963.91
2017-12-02T03:33:26.821Z,96970.28
2017-12-02T03:35:52.651Z,96972.33
2017-12-02T03:38:22.428Z,96974.75
2017-12-02T03:40:48.252Z,96968.95
2017-12-02T03:43:15.758Z,96978.92
2017-12-02T03:45:41.606Z,96970.50
2017-12-02T03:48:11.176Z,96978.19
2017-12-02T03:50:36.986Z,96976.03
2017-12-02T03:53:02.762Z,96977.71
2017-12-02T03:55:28.666Z,96976.92
2017-12-02T03:57:54.482Z,96970.98
2017-12-02T04:00:23.489Z,96971.94
2017-12-02T04:02:49.398Z,96968.31
2017-12-02T04:05:17.044Z,96964.67
2017-12-02T04:07:42.928Z,96970.34
2017-12-02T04:10:11.332Z,96979.45
2017-12-02T04:12:37.189Z,96978.70
2017-12-02T04:15:06.958Z,96977.00
2017-12-02T04:17:32.820Z,96977.80
2017-12-02T04:20:02.413Z,96974.02
2017-12-02T04:22:28.241Z,96970.98
2017-12-02T04:24:55.965Z,96971.19
2017-12-02T04:27:21.783Z,96968.92
2017-12-02T04:29:47.642Z,96974.43
2017-12-02T04:32:13.404Z,96975.78
2017-12-02T04:34:39.252Z,96979.78
2017-12-02T04:37:08.322Z,96979.72
2017-12-02T04:39:34.127Z,96983.94
2017-12-02T04:42:01.934Z,96988.58
2017-12-02T04:44:27.787Z,96986.10
2017-12-02T04:46:57.973Z,96993.95
2017-12-02T04:49:23.836Z,96984.05
2017-12-02T04:51:51.427Z,96993.35
2017-12-02T04:54:17.277Z,96997.11
2017-12-02T04:56:45.907Z,96997.52
2017-12-02T04:59:11.713Z,96999.75
2017-12-02T05:01:38.288Z,97003.71
2017-12-02T05:04:04.106Z,97016.52
2017-12-02T05:06:29.976Z,97016.41
2017-12-02T05:08:57.732Z,97018.92
2017-12-02T05:11:23.572Z,97025.19
2017-12-02T05:13:52.882Z,97028.22
2017-12-02T05:16:18.705Z,97035.25
2017-12-02T05:18:48.173Z,97042.64
2017-12-02T05:21:13.973Z,97048.89
2017-12-02T05:23:43.234Z,97051.39
2017-12-02T05:26:09.008Z,97066.13
2017-12-02T05:28:37.662Z,97069.42
2017-12-02T05:31:03.434Z,97068.19
2017-12-02T05:33:32.734Z,97069.36
2017-12-02T05:35:58.521Z,97071.02
2017-12-02T05:38:26.101Z,97076.05
2017-12-02T05:40:51.902Z,97077.32
2017-12-02T05:43:17.748Z,97075.25
2017-12-02T05:45:43.614Z,97079.59
2017-12-02T05:48:09.456Z,97085.19
2017-12-02T05:50:39.278Z,97080.36
2017-12-02T05:53:05.091Z,97085.69
2017-12-02T05:55:32.510Z,97085.80
2017-12-02T05:57:58.400Z,97080.21
2017-12-02T06:00:27.061Z,97088.23
2017-12-02T06:02:52.912Z,97088.34
2017-12-02T06:07:49.413Z,97092.59
2017-12-02T06:10:16.795Z,97105.77
2017-12-02T06:12:42.574Z,97107.41
2017-12-02T06:15:11.616Z,97112.93
2017-12-02T06:17:37.430Z,97108.55
2017-12-02T06:20:03.240Z,97110.69
2017-12-02T06:22:29.056Z,97114.57
2017-12-02T06:24:54.929Z,97113.63
2017-12-02T06:27:23.895Z,97116.52
2017-12-02T06:29:49.756Z,97118.51
2017-12-02T06:32:17.559Z,97118.80
2017-12-02T06:34:43.383Z,97119.70
2017-12-02T06:39:40.016Z,97127.98
2017-12-02T06:42:07.424Z,97117.04
2017-12-02T06:44:33.269Z,97128.64
2017-12-02T06:47:02.591Z,97133.11
2017-12-02T06:49:28.427Z,97135.67
2017-12-02T06:51:58.226Z,97135.96
2017-12-02T06:54:24.086Z,97136.80
2017-12-02T06:56:49.913Z,97139.02
2017-12-02T06:59:15.754Z,97145.84
2017-12-02T07:01:41.658Z,97141.46
2017-12-02T07:04:08.604Z,97143.96
2017-12-02T07:06:34.485Z,97153.47
2017-12-02T07:09:03.883Z,97157.29
2017-12-02T07:11:29.729Z,97158.03
2017-12-02T07:13:58.604Z,97151.37
2017-12-02T07:16:24.493Z,97151.29
2017-12-02T07:18:54.164Z,97154.98
2017-12-02T07:21:20.037Z,97147.84
2017-12-02T07:23:47.421Z,97153.07
2017-12-02T07:26:13.250Z,97159.80
2017-12-02T07:28:42.682Z,97159.56
2017-12-02T07:31:08.532Z,97160.70
2017-12-02T07:33:34.381Z,97158.42
2017-12-02T07:36:00.196Z,97160.07
2017-12-02T07:38:25.999Z,97154.36
2017-12-02T07:40:53.629Z,97159.82
2017-12-02T07:43:19.451Z,97153.35
2017-12-02T07:45:49.048Z,97149.91
2017-12-02T07:48:14.889Z,97158.72
2017-12-02T07:50:43.088Z,97165.02
2017-12-02T07:53:08.926Z,97168.31
2017-12-02T07:55:37.693Z,97166.95
2017-12-02T07:58:03.536Z,97170.20
2017-12-02T08:03:00.220Z,97180.51
2017-12-02T08:05:27.898Z,97172.38
2017-12-02T08:07:53.748Z,97167.58
2017-12-02T08:10:19.566Z,97171.81
2017-12-02T08:12:45.435Z,97174.81
2017-12-02T08:15:11.295Z,97177.22
2017-12-02T08:17:38.850Z,97176.81
2017-12-02T08:20:04.696Z,97181.61
2017-12-02T08:22:33.383Z,97186.45
2017-12-02T08:24:59.244Z,97191.54
2017-12-02T08:29:55.948Z,97188.63
2017-12-02T08:32:23.468Z,97186.64
2017-12-02T08:34:49.254Z,97185.70
2017-12-02T08:37:17.841Z,97189.98
2017-12-02T08:39:43.722Z,97193.85
2017-12-02T08:42:12.786Z,97206.83
2017-12-02T08:44:38.663Z,97202.33
2017-12-02T08:47:04.501Z,97200.98
2017-12-02T08:49:30.294Z,97204.83
2017-12-02T08:51:56.209Z,97216.11
2017-12-02T08:54:25.342Z,97213.66
2017-12-02T08:56:51.214Z,97226.71
2017-12-02T08:59:20.738Z,97233.34
2017-12-02T09:01:46.629Z,97230.72
2017-12-02T09:04:14.001Z,97236.80
2017-12-02T09:06:39.864Z,97238.05
2017-12-02T09:09:09.692Z,97240.52
2017-12-02T09:11:35.534Z,97245.93
2017-12-02T09:14:03.292Z,97250.28
2017-12-02T09:16:29.148Z,97245.80
2017-12-02T09:18:58.432Z,97256.34
2017-12-02T09:21:24.297Z,97249.03
2017-12-02T09:23:50.160Z,97252.38
2017-12-02T09:26:15.984Z,97244.39
2017-12-02T09:28:41.836Z,97247.84
2017-12-02T09:31:10.940Z,97244.18
2017-12-02T09:33:36.769Z,97246.23
2017-12-02T09:36:05.536Z,97250.41
2017-12-02T09:38:31.349Z,97259.19
2017-12-02T09:40:59.044Z,97254.94
2017-12-02T09:43:24.950Z,97251.81
2017-12-02T09:45:54.135Z,97260.05
2017-12-02T09:48:19.950Z,97262.56
2017-12-02T09:50:48.883Z,97258.34
2017-12-02T09:53:14.702Z,97263.48
2017-12-02T09:55:43.200Z,97258.35
2017-12-02T09:58:09.045Z,97253.81
2017-12-02T10:00:34.878Z,97256.38
2017-12-02T10:03:00.703Z,97253.63
2017-12-02T10:05:26.492Z,97253.95
2017-12-02T10:07:55.575Z,97252.53
2017-12-02T10:10:21.372Z,97256.34
2017-12-02T10:12:50.864Z,97254.78
2017-12-02T10:15:16.695Z,97259.27
2017-12-02T10:17:44.471Z,97248.48
2017-12-02T10:20:10.369Z,97245.29
2017-12-02T10:22:39.491Z,97242.57
2017-12-02T10:25:05.376Z,97248.58
2017-12-02T10:27:34.223Z,97249.53
2017-12-02T10:30:00.089Z,97253.58
2017-12-02T10:32:29.365Z,97247.36
2017-12-02T10:34:55.244Z,97249.63
2017-12-02T10:37:21.099Z,97246.88
2017-12-02T10:39:46.986Z,97239.96
2017-12-02T10:42:12.829Z,97241.05
2017-12-02T10:44:41.889Z,97242.48
2017-12-02T10:47:07.743Z,97244.63
2017-12-02T10:49:35.475Z,97241.67
2017-12-02T10:52:01.317Z,97223.30
2017-12-02T10:54:29.740Z,97222.30
2017-12-02T10:56:55.544Z,97220.57
2017-12-02T10:59:24.976Z,97217.11
2017-12-02T11:01:50.836Z,97219.95
2017-12-02T11:04:19.692Z,97222.81
2017-12-02T11:06:45.557Z,97221.45
2017-12-02T11:09:13.990Z,97222.72
2017-12-02T11:11:39.762Z,97215.67
2017-12-02T11:14:05.592Z,97209.53
2017-12-02T11:16:31.408Z,97212.80
2017-12-02T11:18:57.231Z,97215.30
2017-12-02T11:21:26.240Z,97216.15
2017-12-02T11:23:52.012Z,97212.08
2017-12-02T11:26:20.302Z,97216.28
2017-12-02T11:28:46.165Z,97210.38
2017-12-02T11:31:15.800Z,97220.92
2017-12-02T11:33:41.576Z,97218.91
2017-12-02T11:36:11.066Z,97231.29
2017-12-02T11:38:36.874Z,97225.88
2017-12-02T11:41:04.525Z,97227.37
2017-12-02T11:43:30.334Z,97226.77
2017-12-02T11:45:59.522Z,97225.36
2017-12-02T11:48:25.368Z,97225.39
2017-12-02T11:50:51.188Z,97231.88
2017-12-02T11:53:17.035Z,97225.98
2017-12-02T11:55:42.998Z,97227.84
2017-12-02T11:58:10.682Z,97220.80
2017-12-02T12:00:36.545Z,97216.55
2017-12-02T12:03:05.283Z,97210.50
2017-12-02T12:05:31.091Z,97211.67
2017-12-02T12:10:27.735Z,97211.19
2017-12-02T12:12:55.197Z,97205.08
2017-12-02T12:15:21.030Z,97201.59
2017-12-02T12:17:51.112Z,97199.16
2017-12-02T12:20:16.886Z,97201.20
2017-12-02T12:22:44.627Z,97199.69
2017-12-02T12:25:10.467Z,97212.26
2017-12-02T12:27:36.270Z,97215.52
2017-12-02T12:30:02.088Z,97214.57
2017-12-02T12:32:27.892Z,97200.08
2017-12-02T12:34:56.006Z,97204.13
2017-12-02T12:37:21.861Z,97207.88
2017-12-02T12:42:18.647Z,97210.62
2017-12-02T12:44:45.736Z,97217.20
2017-12-02T12:47:11.542Z,97210.77
2017-12-02T12:49:41.830Z,97203.05
2017-12-02T12:52:07.657Z,97205.10
2017-12-02T12:54:35.366Z,97208.84
2017-12-02T12:57:01.164Z,97211.19
2017-12-02T12:59:31.035Z,97212.23
2017-12-02T13:01:56.923Z,97215.62
2017-12-02T13:04:22.954Z,97213.14
2017-12-02T13:06:48.813Z,97214.34
2017-12-02T13:09:14.594Z,97216.98
2017-12-02T13:11:42.151Z,97218.33
2017-12-02T13:14:07.972Z,97215.25
2017-12-02T13:16:37.609Z,97221.86
2017-12-02T13:19:03.392Z,97221.88
2017-12-02T13:21:31.146Z,97217.25
2017-12-02T13:23:56.990Z,97220.16
2017-12-02T13:26:29.688Z,97214.33
2017-12-02T13:28:55.549Z,97215.94
2017-12-02T13:31:21.348Z,97220.48
2017-12-02T13:33:47.166Z,97213.58
2017-12-02T13:36:16.939Z,97210.07
2017-12-02T13:38:42.758Z,97201.60
2017-12-02T13:41:08.614Z,97207.75
2017-12-02T13:43:34.422Z,97210.86
2017-12-02T13:46:00.199Z,97220.08
2017-12-02T13:48:27.145Z,97212.86
2017-12-02T13:50:52.991Z,97215.36
2017-12-02T13:53:21.883Z,97211.55
2017-12-02T13:55:47.708Z,97223.86
2017-12-02T13:58:17.008Z,97222.12
2017-12-02T14:00:42.830Z,97216.69
2017-12-02T14:03:12.326Z,97219.74
2017-12-02T14:05:38.188Z,97231.74
2017-12-02T14:08:07.303Z,97223.59
2017-12-02T14:10:33.152Z,97223.19
2017-12-02T14:13:00.488Z,97226.99
2017-12-02T14:15:26.336Z,97221.58
2017-12-02T14:17:52.114Z,97219.89
2017-12-02T14:20:17.931Z,97217.73
2017-12-02T14:22:43.748Z,97227.91
2017-12-02T14:25:13.574Z,97230.66
2017-12-02T14:27:39.366Z,97232.27
2017-12-02T14:30:06.787Z,97241.61
2017-12-02T14:32:32.586Z,97241.23
2017-12-02T14:35:02.119Z,97244.48
2017-12-02T14:37:27.956Z,97247.80
2017-12-02T14:39:57.114Z,97248.61
2017-12-02T14:42:22.908Z,97249.52
2017-12-02T14:44:52.544Z,97249.27
2017-12-02T14:47:18.372Z,97255.81
2017-12-02T14:49:45.913Z,97245.89
2017-12-02T14:52:11.714Z,97249.48
2017-12-02T14:54:37.532Z,97246.73
2017-12-02T14:57:03.357Z,97246.22
2017-12-02T14:59:29.144Z,97253.31
2017-12-02T15:01:58.776Z,97249.51
2017-12-02T15:07:09.014Z,97239.28
2017-12-02T15:09:34.805Z,97244.38
2017-12-02T15:12:00.722Z,97256.83
2017-12-02T15:14:26.450Z,97260.35
2017-12-02T15:16:52.250Z,97274.11
2017-12-02T15:19:18.031Z,97274.00
2017-12-02T15:21:43.833Z,97269.69
2017-12-02T15:24:09.705Z,97271.26
2017-12-02T15:26:35.516Z,97274.98
2017-12-02T15:29:01.336Z,97281.08
2017-12-02T15:31:27.160Z,97285.39
2017-12-02T15:33:52.980Z,97285.90
2017-12-02T15:36:18.806Z,97285.94
2017-12-02T15:38:44.623Z,97284.12
2017-12-02T15:41:10.458Z,97278.61
2017-12-02T15:43:37.694Z,97286.47
2017-12-02T15:46:03.523Z,97293.45
2017-12-02T15:48:32.168Z,97292.22
2017-12-02T15:50:58.006Z,97293.00
2017-12-02T15:53:27.372Z,97293.66
2017-12-02T15:55:53.250Z,97290.64
2017-12-02T15:58:22.635Z,97296.63
2017-12-02T16:00:48.452Z,97299.04
2017-12-02T16:03:16.366Z,97305.03
2017-12-02T16:05:42.191Z,97303.62
2017-12-02T16:08:08.004Z,97304.59
2017-12-02T16:10:33.826Z,97303.62
2017-12-02T16:12:59.705Z,97306.52
2017-12-02T16:15:28.074Z,97305.75
2017-12-02T16:17:53.936Z,97301.78
2017-12-02T16:20:22.361Z,97303.95
2017-12-02T16:22:48.176Z,97304.91
2017-12-02T16:27:44.932Z,97298.48
2017-12-02T16:30:12.534Z,97297.59
2017-12-02T16:32:38.344Z,97295.55
2017-12-02T16:35:07.352Z,97296.39
2017-12-02T16:37:33.125Z,97296.83
2017-12-02T16:40:02.386Z,97300.20
2017-12-02T16:42:28.191Z,97303.22
2017-12-02T16:44:54.042Z,97303.22
2017-12-02T16:47:19.885Z,97307.50
2017-12-02T16:49:45.739Z,97312.23
2017-12-02T16:52:13.262Z,97315.20
2017-12-02T16:54:39.073Z,97320.26
2017-12-02T16:57:08.151Z,97316.38
2017-12-02T16:59:33.997Z,97312.38
2017-12-02T17:02:02.892Z,97310.69
2017-12-02T17:04:28.747Z,97314.88
2017-12-02T17:06:57.772Z,97307.69
2017-12-02T17:09:23.659Z,97308.19
2017-12-02T17:12:23.800Z,97307.39
2017-12-02T17:14:49.634Z,97304.72
2017-12-02T17:17:15.444Z,97301.75
2017-12-02T17:19:41.262Z,97296.27
2017-12-02T17:22:07.032Z,97295.15
2017-12-02T17:24:32.882Z,97300.70
2017-12-02T17:26:58.712Z,97304.69
2017-12-02T17:29:24.559Z,97303.34
2017-12-02T17:31:50.454Z,97302.37
2017-12-02T17:34:16.279Z,97304.04
2017-12-02T17:36:42.076Z,97308.70
2017-12-02T17:39:08.492Z,97306.06
2017-12-02T17:41:34.333Z,97304.00
2017-12-02T17:44:03.639Z,97307.41
2017-12-02T17:46:29.461Z,97307.95
2017-12-02T17:48:58.741Z,97307.15
2017-12-02T17:51:24.517Z,97310.98
2017-12-02T17:53:53.602Z,97316.53
2017-12-02T17:56:19.445Z,97320.71
2017-12-02T17:58:47.459Z,97327.52
2017-12-02T18:01:13.287Z,97320.26
2017-12-02T18:03:39.187Z,97318.22
2017-12-02T18:06:04.993Z,97326.07
2017-12-02T18:08:30.803Z,97334.46
2017-12-02T18:10:59.651Z,97324.13
2017-12-02T18:13:25.464Z,97329.88
2017-12-02T18:15:54.333Z,97336.25
2017-12-02T18:18:20.162Z,97341.37
2017-12-02T18:20:49.003Z,97342.22
2017-12-02T18:23:14.801Z,97342.94
2017-12-02T18:25:43.731Z,97344.95
2017-12-02T18:28:09.632Z,97345.92
2017-12-02T18:30:38.436Z,97347.55
2017-12-02T18:33:04.265Z,97349.19
2017-12-02T18:35:33.096Z,97353.71
2017-12-02T18:37:58.931Z,97352.83
2017-12-02T18:40:24.739Z,97348.45
2017-12-02T18:42:50.546Z,97349.00
2017-12-02T18:45:16.380Z,97349.36
2017-12-02T18:47:45.946Z,97353.64
2017-12-02T18:50:11.819Z,97361.01
2017-12-02T18:52:39.605Z,97359.82
2017-12-02T18:58:18.204Z,97371.59
2017-12-02T19:00:44.022Z,97370.25
2017-12-02T19:03:09.869Z,97368.55
2017-12-02T19:05:35.742Z,97375.10
2017-12-02T19:08:01.528Z,97370.80
2017-12-02T19:10:27.415Z,97379.27
2017-12-02T19:12:53.238Z,97373.91
2017-12-02T19:15:19.046Z,97370.13
2017-12-02T19:17:44.941Z,97372.29
2017-12-02T19:20:10.761Z,97362.03
2017-12-02T19:22:36.664Z,97368.30
2017-12-02T19:25:02.535Z,97366.19
2017-12-02T19:27:28.401Z,97374.65
2017-12-02T19:29:54.256Z,97379.30
2017-12-02T19:32:20.059Z,97375.49
2017-12-02T19:34:45.935Z,97377.31
2017-12-02T19:37:11.760Z,97382.86
2017-12-02T19:39:37.622Z,97377.75
2017-12-02T19:42:04.195Z,97341.64
2017-12-02T19:44:30.033Z,97381.52
2017-12-02T19:46:55.892Z,97380.27
2017-12-02T19:49:24.956Z,97375.27
2017-12-02T20:09:11.714Z,97374.91
2017-12-02T20:23:27.852Z,97378.41
2017-12-02T20:43:21.000Z,97376.95
2017-12-02T20:45:46.846Z,97377.41
2017-12-02T20:48:12.657Z,97384.81
2017-12-02T20:50:38.479Z,97381.86
2017-12-02T20:53:04.334Z,97380.52
2017-12-02T20:55:30.214Z,97385.59
2017-12-02T20:57:56.058Z,97381.72
2017-12-02T21:00:21.909Z,97378.67
2017-12-02T21:02:47.681Z,97385.18
2017-12-02T21:05:13.614Z,97385.95
2017-12-02T21:07:39.480Z,97385.84
2017-12-02T21:10:05.318Z,97382.11
2017-12-02T21:12:31.119Z,97381.70
2017-12-02T21:14:56.971Z,97376.16
2017-12-02T21:17:22.846Z,97379.16
2017-12-02T21:19:48.712Z,97375.66
2017-12-02T21:22:14.475Z,97382.39
2017-12-02T21:24:40.330Z,97374.33
2017-12-02T21:27:06.203Z,97378.20
2017-12-02T21:29:32.061Z,97366.22
2017-12-02T21:31:57.891Z,97358.11
2017-12-02T21:34:24.866Z,97361.12
2017-12-02T21:36:50.782Z,97365.70
2017-12-02T21:39:20.643Z,97323.30
2017-12-02T21:41:46.506Z,97360.92
2017-12-02T21:44:12.417Z,97364.73
2017-12-02T21:46:38.298Z,97363.92
2017-12-02T21:49:04.200Z,97360.02
2017-12-02T21:51:31.347Z,97361.31
2017-12-02T21:56:49.808Z,97359.12
2017-12-02T21:59:15.628Z,97357.34
2017-12-02T22:01:41.479Z,97363.04
2017-12-02T22:04:07.338Z,97354.03
2017-12-02T22:06:33.185Z,97358.36
2017-12-02T22:08:59.030Z,97361.75
2017-12-02T22:11:24.967Z,97353.17
2017-12-02T22:13:50.837Z,97354.98
2017-12-02T22:16:16.665Z,97348.98
2017-12-02T22:18:42.525Z,97360.95
2017-12-02T22:21:08.396Z,97361.01
2017-12-02T22:23:34.203Z,97359.25
2017-12-02T22:26:00.079Z,97358.39
2017-12-02T22:28:25.937Z,97360.95
2017-12-02T22:30:51.719Z,97366.63
2017-12-02T22:33:17.533Z,97364.06
2017-12-02T22:35:43.384Z,97361.40
2017-12-02T22:38:09.324Z,97368.64
2017-12-02T22:40:35.193Z,97369.92
2017-12-02T22:43:01.095Z,97361.37
2017-12-02T22:45:26.952Z,97367.38
2017-12-02T22:47:54.972Z,97364.32
2017-12-02T22:50:20.783Z,97351.66
2017-12-02T22:55:17.526Z,97355.77
2017-12-02T23:00:38.889Z,97357.45
2017-12-02T23:03:04.710Z,97360.41
2017-12-02T23:05:30.555Z,97359.12
2017-12-02T23:07:56.380Z,97356.47
2017-12-02T23:10:22.220Z,97363.73
2017-12-02T23:12:48.074Z,97359.44
2017-12-02T23:15:13.984Z,97361.59
2017-12-02T23:17:39.828Z,97364.19
2017-12-02T23:20:05.704Z,97366.37
2017-12-02T23:22:31.538Z,97372.75
2017-12-02T23:24:57.356Z,97366.38
2017-12-02T23:27:23.207Z,97372.74
2017-12-02T23:29:49.113Z,97368.44
2017-12-02T23:32:14.963Z,97368.97
2017-12-02T23:34:40.819Z,97362.51
2017-12-02T23:37:06.613Z,97362.51
2017-12-02T23:39:32.468Z,97362.11
2017-12-02T23:41:58.294Z,97365.11
2017-12-02T23:44:24.170Z,97369.73
2017-12-02T23:46:49.957Z,97369.16
2017-12-02T23:49:15.807Z,97363.66
2017-12-02T23:51:41.613Z,97362.25
2017-12-02T23:54:07.509Z,97361.34
2017-12-02T23:56:33.409Z,97361.30
2017-12-02T23:58:59.278Z,97354.42
